createdAt,value
2022-11-27T00:00:14.063Z,5.78
2022-11-27T00:02:41.846Z,5.87
2022-11-27T00:05:10.301Z,5.76
2022-11-27T00:07:39.421Z,5.48
2022-11-27T00:10:08.279Z,5.57
2022-11-27T00:12:36.401Z,5.62
2022-11-27T00:15:05.031Z,5.66
2022-11-27T00:17:32.753Z,5.56
2022-11-27T00:20:00.384Z,5.48
2022-11-27T00:22:28.004Z,5.58
2022-11-27T00:24:56.961Z,5.53
2022-11-27T00:27:24.827Z,5.68
2022-11-27T00:29:52.611Z,5.70
2022-11-27T00:32:20.241Z,5.76
2022-11-27T00:34:47.922Z,5.77
2022-11-27T00:37:15.744Z,5.70
2022-11-27T00:39:43.355Z,5.60
2022-11-27T00:42:12.352Z,5.57
2022-11-27T00:44:40.258Z,5.48
2022-11-27T00:47:08.058Z,5.35
2022-11-27T00:49:35.688Z,5.45
2022-11-27T00:52:03.546Z,5.35
2022-11-27T00:54:31.128Z,5.32
2022-11-27T00:56:58.995Z,5.36
2022-11-27T00:59:28.189Z,5.41
2022-11-27T01:01:55.822Z,5.32
2022-11-27T01:04:24.376Z,5.37
2022-11-27T01:06:51.976Z,5.41
2022-11-27T01:09:23.970Z,5.41
2022-11-27T01:11:52.641Z,5.45
2022-11-27T01:14:20.280Z,5.41
2022-11-27T01:17:03.146Z,5.33
2022-11-27T01:19:30.816Z,5.24
2022-11-27T01:21:58.384Z,4.95
2022-11-27T01:24:26.043Z,5.40
2022-11-27T01:26:53.735Z,5.42
2022-11-27T01:29:21.356Z,5.27
2022-11-27T01:31:50.417Z,5.40
2022-11-27T01:34:19.985Z,5.43
2022-11-27T01:36:48.079Z,5.36
2022-11-27T01:39:18.182Z,5.30
2022-11-27T01:41:47.030Z,5.33
2022-11-27T01:44:51.523Z,5.21
2022-11-27T01:47:30.440Z,5.16
2022-11-27T01:50:06.897Z,5.12
2022-11-27T01:52:37.986Z,5.28
2022-11-27T01:55:10.102Z,5.41
2022-11-27T01:57:43.659Z,5.45
2022-11-27T02:00:14.077Z,5.30
2022-11-27T02:02:44.585Z,5.47
2022-11-27T02:05:15.064Z,5.73
2022-11-27T02:07:42.875Z,5.83
2022-11-27T02:10:11.343Z,5.83
2022-11-27T02:12:47.484Z,5.81
2022-11-27T02:15:21.218Z,5.95
2022-11-27T02:17:55.548Z,5.92
2022-11-27T02:20:35.268Z,6.11
2022-11-27T02:23:17.165Z,6.02
2022-11-27T02:26:00.248Z,6.08
2022-11-27T02:28:38.900Z,5.93
2022-11-27T02:31:15.142Z,5.86
2022-11-27T02:33:46.851Z,5.92
2022-11-27T02:36:19.707Z,6.17
2022-11-27T02:38:52.180Z,5.87
2022-11-27T02:41:26.400Z,5.46
2022-11-27T02:43:55.328Z,5.83
2022-11-27T02:46:25.549Z,6.11
2022-11-27T02:48:56.221Z,6.07
2022-11-27T02:51:28.124Z,5.79
2022-11-27T02:53:58.612Z,6.01
2022-11-27T02:56:29.267Z,5.79
2022-11-27T02:59:00.045Z,5.62
2022-11-27T03:01:33.102Z,5.61
2022-11-27T03:04:08.314Z,5.25
2022-11-27T03:06:44.307Z,5.37
2022-11-27T03:09:16.143Z,5.48
2022-11-27T03:11:44.310Z,5.60
2022-11-27T03:14:13.739Z,5.88
2022-11-27T03:16:49.997Z,5.90
2022-11-27T03:19:21.503Z,5.77
2022-11-27T03:21:53.607Z,5.67
2022-11-27T03:24:21.323Z,5.46
2022-11-27T03:26:49.947Z,5.65
2022-11-27T03:29:21.231Z,5.62
2022-11-27T03:31:51.022Z,5.63
2022-11-27T03:34:19.281Z,5.70
2022-11-27T03:36:47.052Z,5.56
2022-11-27T03:39:15.051Z,5.51
2022-11-27T03:41:49.854Z,5.44
2022-11-27T03:44:27.849Z,5.48
2022-11-27T03:47:07.943Z,5.47
2022-11-27T03:49:47.982Z,5.61
2022-11-27T03:52:26.368Z,5.50
2022-11-27T03:55:02.523Z,5.61
2022-11-27T03:57:38.752Z,5.57
2022-11-27T04:00:09.259Z,5.63
2022-11-27T04:02:44.899Z,5.56
2022-11-27T04:05:16.037Z,5.65
2022-11-27T04:07:43.874Z,5.46
2022-11-27T04:10:12.678Z,5.53
2022-11-27T04:12:40.458Z,5.33
2022-11-27T04:15:09.056Z,5.57
2022-11-27T04:17:36.993Z,5.53
2022-11-27T04:20:07.733Z,5.38
2022-11-27T04:22:35.535Z,5.35
2022-11-27T04:25:03.880Z,5.13
2022-11-27T04:27:31.552Z,5.17
2022-11-27T04:29:59.256Z,5.05
2022-11-27T04:32:26.944Z,5.03
2022-11-27T04:34:54.694Z,5.03
2022-11-27T04:37:23.642Z,4.91
2022-11-27T04:39:51.235Z,4.90
2022-11-27T04:42:18.912Z,4.70
2022-11-27T04:44:46.532Z,4.83
2022-11-27T04:47:14.178Z,5.02
2022-11-27T04:49:41.909Z,5.07
2022-11-27T04:52:10.757Z,4.81
2022-11-27T04:54:39.974Z,4.87
2022-11-27T04:57:08.044Z,4.91
2022-11-27T04:59:37.924Z,4.93
2022-11-27T05:02:05.737Z,4.67
2022-11-27T05:04:33.819Z,4.85
2022-11-27T05:07:01.465Z,4.77
2022-11-27T05:09:29.044Z,4.87
2022-11-27T05:11:58.151Z,4.77
2022-11-27T05:14:29.183Z,4.88
2022-11-27T05:16:58.485Z,5.08
2022-11-27T05:19:28.672Z,5.12
2022-11-27T05:21:56.690Z,4.77
2022-11-27T05:24:26.499Z,4.68
2022-11-27T05:26:54.672Z,4.56
2022-11-27T05:29:24.544Z,4.33
2022-11-27T05:31:52.669Z,4.57
2022-11-27T05:34:20.618Z,4.58
2022-11-27T05:36:48.525Z,4.59
2022-11-27T05:39:16.218Z,4.40
2022-11-27T05:41:44.352Z,4.48
2022-11-27T05:44:13.709Z,4.48
2022-11-27T05:46:44.870Z,4.52
2022-11-27T05:49:14.481Z,4.56
2022-11-27T05:51:49.370Z,4.48
2022-11-27T05:54:19.053Z,4.43
2022-11-27T05:56:46.856Z,4.33
2022-11-27T05:59:14.966Z,4.22
2022-11-27T06:01:44.000Z,4.28
2022-11-27T06:04:11.830Z,4.14
2022-11-27T06:06:39.433Z,4.03
2022-11-27T06:09:12.457Z,3.76
2022-11-27T06:11:41.562Z,3.62
2022-11-27T06:14:09.779Z,3.70
2022-11-27T06:16:38.347Z,4.07
2022-11-27T06:19:08.426Z,4.19
2022-11-27T06:21:36.078Z,4.27
2022-11-27T06:24:04.097Z,4.08
2022-11-27T06:26:33.405Z,4.22
2022-11-27T06:29:02.297Z,3.98
2022-11-27T06:31:32.943Z,3.18
2022-11-27T06:34:02.466Z,3.31
2022-11-27T06:36:33.151Z,3.78
2022-11-27T06:39:01.043Z,3.66
2022-11-27T06:41:29.241Z,4.12
2022-11-27T06:43:59.579Z,4.04
2022-11-27T06:46:29.823Z,4.23
2022-11-27T06:48:59.296Z,4.24
2022-11-27T06:51:29.797Z,4.08
2022-11-27T06:54:01.524Z,4.15
2022-11-27T06:56:32.013Z,3.95
2022-11-27T06:59:01.616Z,3.82
2022-11-27T07:01:31.328Z,3.77
2022-11-27T07:03:59.574Z,3.73
2022-11-27T07:06:28.302Z,3.78
2022-11-27T07:08:56.882Z,3.65
2022-11-27T07:11:28.076Z,3.65
2022-11-27T07:13:57.204Z,3.61
2022-11-27T07:16:25.814Z,3.35
2022-11-27T07:18:55.077Z,3.29
2022-11-27T07:21:23.587Z,3.41
2022-11-27T07:23:51.629Z,3.46
2022-11-27T07:26:21.192Z,3.65
2022-11-27T07:28:50.333Z,3.35
2022-11-27T07:31:20.086Z,3.53
2022-11-27T07:33:48.168Z,3.84
2022-11-27T07:36:17.535Z,3.96
2022-11-27T07:38:47.139Z,3.98
2022-11-27T07:41:15.357Z,4.05
2022-11-27T07:43:44.622Z,4.23
2022-11-27T07:46:17.072Z,4.07
2022-11-27T07:48:44.880Z,3.83
2022-11-27T07:51:14.428Z,4.08
2022-11-27T07:53:43.620Z,3.93
2022-11-27T07:56:12.923Z,3.94
2022-11-27T07:58:40.610Z,3.78
2022-11-27T08:01:10.348Z,4.00
2022-11-27T08:03:39.676Z,4.07
2022-11-27T08:06:15.356Z,4.11
2022-11-27T08:08:43.056Z,4.12
2022-11-27T08:11:21.050Z,4.11
2022-11-27T08:13:48.790Z,4.26
2022-11-27T08:16:16.530Z,4.23
2022-11-27T08:18:45.539Z,4.28
2022-11-27T08:21:13.722Z,4.35
2022-11-27T08:23:41.541Z,4.36
2022-11-27T08:26:10.821Z,4.25
2022-11-27T08:28:39.543Z,4.36
2022-11-27T08:31:09.449Z,4.17
2022-11-27T08:33:37.535Z,4.29
2022-11-27T08:36:10.605Z,4.50
2022-11-27T08:38:40.317Z,4.54
2022-11-27T08:41:09.578Z,4.58
2022-11-27T08:43:37.811Z,4.61
2022-11-27T08:46:06.681Z,4.41
2022-11-27T08:48:34.532Z,4.56
2022-11-27T08:51:08.825Z,4.59
2022-11-27T08:53:37.531Z,4.71
2022-11-27T08:56:09.832Z,4.73
2022-11-27T08:58:37.632Z,4.88
2022-11-27T09:01:12.556Z,4.78
2022-11-27T09:03:40.385Z,4.74
2022-11-27T09:06:10.935Z,4.59
2022-11-27T09:08:39.198Z,4.81
2022-11-27T09:11:07.814Z,4.48
2022-11-27T09:13:36.889Z,4.64
2022-11-27T09:16:05.778Z,4.71
2022-11-27T09:18:33.896Z,4.72
2022-11-27T09:21:02.808Z,4.63
2022-11-27T09:23:32.171Z,4.70
2022-11-27T09:26:01.075Z,4.88
2022-11-27T09:28:31.545Z,4.73
2022-11-27T09:31:02.153Z,4.52
2022-11-27T09:33:32.071Z,5.01
2022-11-27T09:35:59.823Z,5.19
2022-11-27T09:38:27.480Z,4.91
2022-11-27T09:41:03.313Z,5.15
2022-11-27T09:43:35.536Z,5.16
2022-11-27T09:46:09.163Z,5.22
2022-11-27T09:48:40.879Z,4.94
2022-11-27T09:51:18.458Z,5.01
2022-11-27T09:53:49.609Z,4.97
2022-11-27T09:56:21.327Z,5.42
2022-11-27T09:58:55.881Z,5.18
2022-11-27T10:01:33.641Z,5.12
2022-11-27T10:04:06.399Z,4.86
2022-11-27T10:06:44.570Z,5.03
2022-11-27T10:09:22.368Z,5.02
2022-11-27T10:12:00.102Z,5.12
2022-11-27T10:14:46.040Z,5.33
2022-11-27T10:17:17.803Z,5.43
2022-11-27T10:19:53.577Z,5.27
2022-11-27T10:22:27.540Z,5.74
2022-11-27T10:25:03.944Z,5.64
2022-11-27T10:27:41.849Z,5.59
2022-11-27T10:30:17.357Z,5.56
2022-11-27T10:32:55.103Z,5.77
2022-11-27T10:35:25.583Z,5.72
2022-11-27T10:37:58.147Z,5.92
2022-11-27T10:40:33.028Z,5.88
2022-11-27T10:43:10.895Z,5.70
2022-11-27T10:45:44.182Z,5.47
2022-11-27T10:48:12.701Z,5.71
2022-11-27T10:50:41.502Z,5.62
2022-11-27T10:53:12.956Z,5.92
2022-11-27T10:55:56.594Z,6.01
2022-11-27T10:58:32.472Z,5.97
2022-11-27T11:01:06.793Z,6.05
2022-11-27T11:03:35.050Z,6.19
2022-11-27T11:06:20.757Z,6.39
2022-11-27T11:08:50.228Z,6.42
2022-11-27T11:11:27.519Z,6.74
2022-11-27T11:13:56.716Z,7.04
2022-11-27T11:16:33.359Z,7.26
2022-11-27T11:19:02.903Z,7.27
2022-11-27T11:21:33.538Z,7.31
2022-11-27T11:24:04.281Z,7.17
2022-11-27T11:26:34.449Z,7.02
2022-11-27T11:29:06.183Z,7.20
2022-11-27T11:31:38.057Z,7.18
2022-11-27T11:34:16.303Z,7.35
2022-11-27T11:36:56.136Z,6.84
2022-11-27T11:39:25.877Z,6.57
2022-11-27T11:41:53.516Z,6.28
2022-11-27T11:44:27.059Z,5.80
2022-11-27T11:46:55.635Z,6.02
2022-11-27T11:49:25.961Z,6.27
2022-11-27T11:52:09.289Z,6.33
2022-11-27T11:54:50.031Z,6.33
2022-11-27T11:57:41.270Z,5.97
2022-11-27T12:00:15.337Z,6.11
2022-11-27T12:02:58.648Z,6.99
2022-11-27T12:05:37.315Z,7.09
2022-11-27T12:08:22.459Z,7.73
2022-11-27T12:10:59.159Z,7.62
2022-11-27T12:13:40.576Z,7.09
2022-11-27T12:16:19.093Z,6.58
2022-11-27T12:18:57.870Z,6.59
2022-11-27T12:21:38.899Z,6.31
2022-11-27T12:24:22.884Z,6.47
2022-11-27T12:27:05.356Z,6.93
2022-11-27T12:29:47.382Z,7.21
2022-11-27T12:32:47.337Z,7.04
2022-11-27T12:35:32.757Z,6.51
2022-11-27T12:38:20.738Z,6.64
2022-11-27T12:41:00.697Z,6.56
2022-11-27T12:43:31.380Z,6.46
2022-11-27T12:46:03.723Z,6.29
2022-11-27T12:48:38.004Z,6.52
2022-11-27T12:51:10.809Z,6.29
2022-11-27T12:53:44.760Z,6.15
2022-11-27T12:56:17.146Z,6.36
2022-11-27T12:58:49.783Z,6.34
2022-11-27T13:01:26.737Z,6.21
2022-11-27T13:04:05.360Z,6.15
2022-11-27T13:06:38.095Z,6.23
2022-11-27T13:09:09.232Z,6.18
2022-11-27T13:11:40.089Z,6.08
2022-11-27T13:14:13.625Z,6.30
2022-11-27T13:16:46.448Z,6.41
2022-11-27T13:19:23.146Z,6.52
2022-11-27T13:21:53.940Z,6.62
2022-11-27T13:24:22.501Z,6.40
2022-11-27T13:26:55.422Z,6.63
2022-11-27T13:29:29.413Z,6.45
2022-11-27T13:31:59.793Z,6.58
2022-11-27T13:34:30.906Z,6.45
2022-11-27T13:37:01.401Z,6.53
2022-11-27T13:39:31.958Z,6.60
2022-11-27T13:42:03.891Z,6.40
2022-11-27T13:44:32.071Z,6.34
2022-11-27T13:47:05.939Z,6.33
2022-11-27T13:49:37.885Z,6.23
2022-11-27T13:52:07.892Z,5.93
2022-11-27T13:54:35.686Z,5.90
2022-11-27T13:57:13.787Z,5.90
2022-11-27T13:59:41.503Z,6.15
2022-11-27T14:02:09.612Z,6.13
2022-11-27T14:04:55.599Z,6.27
2022-11-27T14:07:25.300Z,5.94
2022-11-27T14:09:56.204Z,5.83
2022-11-27T14:12:26.675Z,6.04
2022-11-27T14:15:03.519Z,6.13
2022-11-27T14:17:41.323Z,6.06
2022-11-27T14:20:28.378Z,5.87
2022-11-27T14:23:11.810Z,5.72
2022-11-27T14:25:40.533Z,5.80
2022-11-27T14:28:15.975Z,5.79
2022-11-27T14:30:48.047Z,5.69
2022-11-27T14:33:20.843Z,5.69
2022-11-27T14:35:56.717Z,5.99
2022-11-27T14:38:25.965Z,5.89
2022-11-27T14:40:55.073Z,6.22
2022-11-27T14:43:26.605Z,6.41
2022-11-27T14:45:56.288Z,6.29
2022-11-27T14:48:25.883Z,6.10
2022-11-27T14:50:56.726Z,6.11
2022-11-27T14:53:27.323Z,5.83
2022-11-27T14:55:58.675Z,5.94
2022-11-27T14:58:28.894Z,5.61
2022-11-27T15:01:03.205Z,5.65
2022-11-27T15:03:31.111Z,5.77
2022-11-27T15:06:02.265Z,5.56
2022-11-27T15:08:33.916Z,5.43
2022-11-27T15:11:03.917Z,5.17
2022-11-27T15:13:34.263Z,5.39
2022-11-27T15:16:05.566Z,5.50
2022-11-27T15:18:37.136Z,5.79
2022-11-27T15:21:12.251Z,6.07
2022-11-27T15:23:45.806Z,5.70
2022-11-27T15:26:19.997Z,6.16
2022-11-27T15:28:53.602Z,5.92
2022-11-27T15:31:25.690Z,6.08
2022-11-27T15:33:59.097Z,6.07
2022-11-27T15:36:28.535Z,6.01
2022-11-27T15:39:06.956Z,5.93
2022-11-27T15:41:37.403Z,5.87
2022-11-27T15:44:10.023Z,5.67
2022-11-27T15:46:37.758Z,5.56
2022-11-27T15:49:09.659Z,5.64
2022-11-27T15:51:38.667Z,5.52
2022-11-27T15:54:06.355Z,5.41
2022-11-27T15:56:34.100Z,5.41
2022-11-27T15:59:01.719Z,5.32
2022-11-27T16:01:29.417Z,5.36
2022-11-27T16:03:57.092Z,5.35
2022-11-27T16:06:24.868Z,5.42
2022-11-27T16:08:56.240Z,5.47
2022-11-27T16:11:24.717Z,5.39
2022-11-27T16:13:52.787Z,5.46
2022-11-27T16:16:20.818Z,5.51
2022-11-27T16:18:48.630Z,5.51
2022-11-27T16:21:18.168Z,5.45
2022-11-27T16:23:46.046Z,5.50
2022-11-27T16:26:15.643Z,5.66
2022-11-27T16:28:43.400Z,5.69
2022-11-27T16:31:14.932Z,5.93
2022-11-27T16:33:43.011Z,6.00
2022-11-27T16:36:12.595Z,5.78
2022-11-27T16:38:40.732Z,5.65
2022-11-27T16:41:10.700Z,6.09
2022-11-27T16:43:41.451Z,6.05
2022-11-27T16:46:11.377Z,6.24
2022-11-27T16:48:40.722Z,5.86
2022-11-27T16:51:10.194Z,5.57
2022-11-27T16:53:38.979Z,5.82
2022-11-27T16:56:08.027Z,5.47
2022-11-27T16:58:36.419Z,5.64
2022-11-27T17:01:07.547Z,6.19
2022-11-27T17:03:35.555Z,6.21
2022-11-27T17:06:08.041Z,5.79
2022-11-27T17:08:35.717Z,5.80
2022-11-27T17:11:08.806Z,5.98
2022-11-27T17:13:36.728Z,6.06
2022-11-27T17:16:06.642Z,6.14
2022-11-27T17:18:34.421Z,6.30
2022-11-27T17:21:03.395Z,6.39
2022-11-27T17:23:31.090Z,6.21
2022-11-27T17:25:58.756Z,6.13
2022-11-27T17:28:26.423Z,6.37
2022-11-27T17:30:54.135Z,5.73
2022-11-27T17:33:23.092Z,6.20
2022-11-27T17:35:50.750Z,6.23
2022-11-27T17:38:18.516Z,6.24
2022-11-27T17:40:46.225Z,6.30
2022-11-27T17:43:13.783Z,6.65
2022-11-27T17:45:41.759Z,6.60
2022-11-27T17:48:09.467Z,6.46
2022-11-27T17:50:38.421Z,6.55
2022-11-27T17:53:06.040Z,6.59
2022-11-27T17:55:34.196Z,6.55
2022-11-27T17:58:01.988Z,6.19
2022-11-27T18:00:29.670Z,6.18
2022-11-27T18:02:57.628Z,6.09
2022-11-27T18:05:25.265Z,6.64
2022-11-27T18:07:54.347Z,6.07
2022-11-27T18:10:22.128Z,6.34
2022-11-27T18:12:50.431Z,6.32
2022-11-27T18:15:18.486Z,6.41
2022-11-27T18:17:46.187Z,6.29
2022-11-27T18:20:14.128Z,6.47
2022-11-27T18:22:41.810Z,6.36
2022-11-27T18:25:10.997Z,6.14
2022-11-27T18:27:38.784Z,6.53
2022-11-27T18:30:07.843Z,6.64
2022-11-27T18:32:36.784Z,6.55
2022-11-27T18:35:05.074Z,6.72
2022-11-27T18:37:32.948Z,6.58
2022-11-27T18:40:00.700Z,6.67
2022-11-27T18:42:30.496Z,6.52
2022-11-27T18:44:58.290Z,6.49
2022-11-27T18:47:25.943Z,6.55
2022-11-27T18:49:55.160Z,6.44
2022-11-27T18:52:22.838Z,6.58
2022-11-27T18:54:50.503Z,6.60
2022-11-27T18:57:19.523Z,6.42
2022-11-27T18:59:48.997Z,6.54
2022-11-27T19:02:16.925Z,6.74
2022-11-27T19:04:45.294Z,6.66
2022-11-27T19:07:13.177Z,6.37
2022-11-27T19:09:41.441Z,6.54
2022-11-27T19:12:09.845Z,6.45
2022-11-27T19:14:37.630Z,6.60
2022-11-27T19:17:06.767Z,6.66
2022-11-27T19:19:54.211Z,6.50
2022-11-27T19:22:22.947Z,6.72
2022-11-27T19:24:50.732Z,6.82
2022-11-27T19:27:18.679Z,6.95
2022-11-27T19:29:46.519Z,6.94
2022-11-27T19:32:15.658Z,6.77
2022-11-27T19:34:43.667Z,6.92
2022-11-27T19:37:11.618Z,7.10
2022-11-27T19:39:39.390Z,7.15
2022-11-27T19:42:07.627Z,7.19
2022-11-27T19:44:35.890Z,7.16
2022-11-27T19:47:03.676Z,7.17
2022-11-27T19:49:33.363Z,7.16
2022-11-27T19:52:01.187Z,7.12
2022-11-27T19:54:28.985Z,7.08
2022-11-27T19:56:56.969Z,7.01
2022-11-27T19:59:26.165Z,7.09
2022-11-27T20:01:54.190Z,7.05
2022-11-27T20:04:22.076Z,7.28
2022-11-27T20:06:53.513Z,7.29
2022-11-27T20:09:21.467Z,7.37
2022-11-27T20:11:49.331Z,7.42
2022-11-27T20:14:17.216Z,7.48
2022-11-27T20:16:45.125Z,7.45
2022-11-27T20:19:12.968Z,7.44
2022-11-27T20:21:40.761Z,7.34
2022-11-27T20:24:10.138Z,7.19
2022-11-27T20:26:42.397Z,7.29
2022-11-27T20:29:11.481Z,7.27
2022-11-27T20:31:41.370Z,7.12
2022-11-27T20:34:09.991Z,7.18
2022-11-27T20:36:40.949Z,7.22
2022-11-27T20:39:15.085Z,7.24
2022-11-27T20:41:45.815Z,7.28
2022-11-27T20:44:13.648Z,7.24
2022-11-27T20:46:41.427Z,7.24
2022-11-27T20:49:09.641Z,7.29
2022-11-27T20:51:37.536Z,7.28
2022-11-27T20:54:05.657Z,7.43
2022-11-27T20:56:34.828Z,7.35
2022-11-27T20:59:04.814Z,7.20
2022-11-27T21:01:34.517Z,7.39
2022-11-27T21:04:08.925Z,7.00
2022-11-27T21:06:43.574Z,7.23
2022-11-27T21:09:13.736Z,7.13
2022-11-27T21:11:43.940Z,7.19
2022-11-27T21:14:13.915Z,7.04
2022-11-27T21:16:46.003Z,7.07
2022-11-27T21:19:16.236Z,6.98
2022-11-27T21:21:44.082Z,6.90
2022-11-27T21:24:12.059Z,7.17
2022-11-27T21:26:41.308Z,6.73
2022-11-27T21:29:12.119Z,6.72
2022-11-27T21:31:45.255Z,6.98
2022-11-27T21:34:14.487Z,6.92
2022-11-27T21:36:42.365Z,6.98
2022-11-27T21:39:12.305Z,7.02
2022-11-27T21:41:40.095Z,7.24
2022-11-27T21:44:07.700Z,7.10
2022-11-27T21:46:37.455Z,6.96
2022-11-27T21:49:05.086Z,6.57
2022-11-27T21:51:33.164Z,6.71
2022-11-27T21:54:00.944Z,6.93
2022-11-27T21:56:32.219Z,6.79
2022-11-27T21:58:59.902Z,6.68
2022-11-27T22:01:27.824Z,6.86
2022-11-27T22:03:58.498Z,6.77
2022-11-27T22:06:28.304Z,6.67
2022-11-27T22:08:58.393Z,6.79
2022-11-27T22:11:28.115Z,6.98
2022-11-27T22:13:56.906Z,6.97
2022-11-27T22:16:26.486Z,6.83
2022-11-27T22:18:56.865Z,6.63
2022-11-27T22:21:24.860Z,6.89
2022-11-27T22:23:52.532Z,6.66
2022-11-27T22:26:22.541Z,6.63
2022-11-27T22:28:50.806Z,6.66
2022-11-27T22:31:21.198Z,6.78
2022-11-27T22:33:49.330Z,6.53
2022-11-27T22:36:19.977Z,6.73
2022-11-27T22:38:49.746Z,6.83
2022-11-27T22:41:18.815Z,6.89
2022-11-27T22:43:46.517Z,6.72
2022-11-27T22:46:16.907Z,6.64
2022-11-27T22:48:45.151Z,6.79
2022-11-27T22:51:12.862Z,6.78
2022-11-27T22:53:41.887Z,6.70
2022-11-27T22:56:12.445Z,6.78
2022-11-27T22:58:41.898Z,6.68
2022-11-27T23:01:15.807Z,6.67
2022-11-27T23:03:44.002Z,6.73
2022-11-27T23:06:12.849Z,6.78
2022-11-27T23:08:42.912Z,6.78
2022-11-27T23:11:11.464Z,6.79
2022-11-27T23:13:39.073Z,6.83
2022-11-27T23:16:09.168Z,6.84
2022-11-27T23:18:38.335Z,6.77
2022-11-27T23:21:07.385Z,6.75
2022-11-27T23:23:35.126Z,6.68
2022-11-27T23:26:12.243Z,6.67
2022-11-27T23:28:44.741Z,6.24
2022-11-27T23:31:29.371Z,6.50
2022-11-27T23:33:57.863Z,6.46
2022-11-27T23:36:25.521Z,6.50
2022-11-27T23:38:54.246Z,6.40
2022-11-27T23:41:24.757Z,6.42
2022-11-27T23:43:53.213Z,6.45
2022-11-27T23:46:23.080Z,6.26
2022-11-27T23:48:50.952Z,6.31
2022-11-27T23:51:20.876Z,6.25
2022-11-27T23:53:50.207Z,6.20
2022-11-27T23:56:19.691Z,6.18
2022-11-27T23:58:49.963Z,6.01
